Time;durP1;ratioP1;P1;durP2;ratioP2;P2;SDS_P1;SDS_P2;PMS_P1;PMS_P2;Temp;Humidity;BMP_temperature;BMP_pressure;BME280_temperature;BME280_humidity;BME280_pressure;Samples;Min_cycle;Max_cycle;Signal;HPM_P1;HPM_P2
2023/10/29 00:01:28;;;;;;;2.45;1.38;;;;;;;13.99;74.37;97709.91;4974038;28;20471;-80
2023/10/29 00:03:55;;;;;;;2.60;1.33;;;;;;;14.00;74.31;97710.72;4973939;28;20059;-76
2023/10/29 00:06:22;;;;;;;5.95;1.70;;;;;;;14.00;74.26;97708.06;4974045;28;20062;-78
2023/10/29 00:08:49;;;;;;;2.72;1.33;;;;;;;14.01;74.45;97696.50;4973644;28;20598;-71
2023/10/29 00:11:15;;;;;;;2.92;1.15;;;;;;;14.02;74.44;97684.94;4973949;28;20051;-76
2023/10/29 00:13:43;;;;;;;2.03;1.15;;;;;;;14.03;74.52;97695.38;4973880;28;20046;-81
2023/10/29 00:16:11;;;;;;;2.92;1.10;;;;;;;14.03;74.59;97676.84;4973702;28;20054;-76
2023/10/29 00:18:38;;;;;;;1.20;1.02;;;;;;;14.04;74.50;97682.94;4973472;28;20086;-75
2023/10/29 00:21:05;;;;;;;2.75;1.73;;;;;;;14.04;74.59;97678.50;4973689;28;20408;-78
2023/10/29 00:23:32;;;;;;;2.13;1.23;;;;;;;14.04;74.50;97675.84;4973693;28;20074;-75
2023/10/29 00:25:59;;;;;;;1.77;1.10;;;;;;;14.06;74.67;97670.41;4973558;28;20070;-75
2023/10/29 00:28:26;;;;;;;1.75;1.17;;;;;;;14.06;74.60;97662.47;4973495;28;20051;-75
2023/10/29 00:30:55;;;;;;;1.75;1.20;;;;;;;14.09;74.58;97669.25;4973265;28;20463;-73
2023/10/29 00:33:22;;;;;;;2.22;1.40;;;;;;;14.10;74.50;97676.19;4973217;28;20487;-79
2023/10/29 00:35:50;;;;;;;3.58;1.50;;;;;;;14.10;74.62;97661.16;4973307;28;20404;-78
2023/10/29 00:38:18;;;;;;;1.73;1.40;;;;;;;14.13;74.41;97654.72;4973373;28;20047;-74
2023/10/29 00:40:45;;;;;;;1.30;1.10;;;;;;;14.12;74.43;97656.50;4973008;28;20505;-72
2023/10/29 00:43:15;;;;;;;1.92;1.38;;;;;;;14.12;74.45;97647.75;4973334;28;20046;-75
2023/10/29 00:45:43;;;;;;;1.75;1.25;;;;;;;14.14;74.40;97643.13;4971845;28;20043;-74
2023/10/29 00:48:11;;;;;;;1.70;1.25;;;;;;;14.13;74.49;97642.28;4973404;28;20169;-75
2023/10/29 00:50:39;;;;;;;2.03;1.30;;;;;;;14.14;74.42;97621.97;4972801;28;20132;-75
2023/10/29 00:53:06;;;;;;;2.50;1.30;;;;;;;14.14;74.33;97617.50;4972992;28;20467;-74
2023/10/29 00:55:33;;;;;;;2.70;1.23;;;;;;;14.13;74.41;97615.03;4972936;28;20042;-78
2023/10/29 00:58:00;;;;;;;2.90;1.23;;;;;;;14.13;74.30;97626.41;4972963;28;20039;-77
2023/10/29 01:00:27;;;;;;;1.45;1.20;;;;;;;14.14;74.61;97625.44;4972677;28;20484;-72
2023/10/29 01:02:53;;;;;;;4.22;1.00;;;;;;;14.14;74.48;97621.97;4972677;28;20101;-75
2023/10/29 01:05:21;;;;;;;1.92;1.02;;;;;;;14.15;74.77;97616.50;4973035;28;20053;-74
2023/10/29 01:07:48;;;;;;;3.08;1.40;;;;;;;14.15;74.52;97607.75;4972802;28;20049;-73
2023/10/29 01:10:15;;;;;;;2.13;1.30;;;;;;;14.16;74.80;97615.53;4972470;28;20109;-75
2023/10/29 01:12:45;;;;;;;4.20;1.30;;;;;;;14.16;74.69;97615.53;4972633;28;20580;-74
2023/10/29 01:15:11;;;;;;;2.00;1.25;;;;;;;14.17;74.73;97603.94;4971510;28;20568;-73
2023/10/29 01:17:38;;;;;;;1.90;1.17;;;;;;;14.19;74.66;97604.63;4972756;28;20080;-74
2023/10/29 01:20:05;;;;;;;2.03;1.20;;;;;;;14.20;74.75;97600.97;4972531;28;20391;-72
2023/10/29 01:22:33;;;;;;;2.95;1.30;;;;;;;14.20;74.68;97590.38;4971433;28;20050;-74
2023/10/29 01:25:05;;;;;;;1.83;1.13;;;;;;;14.22;74.62;97594.69;4972574;28;20051;-74
2023/10/29 01:27:33;;;;;;;4.15;1.27;;;;;;;14.22;74.60;97587.56;4972487;28;20051;-70
2023/10/29 01:29:59;;;;;;;3.65;1.40;;;;;;;14.24;74.58;97590.88;4972417;28;20057;-77
2023/10/29 01:32:26;;;;;;;2.25;1.17;;;;;;;14.25;74.75;97570.53;4972549;28;20044;-73
2023/10/29 01:34:53;;;;;;;2.78;1.25;;;;;;;14.25;74.84;97562.59;4972351;28;20475;-73
2023/10/29 01:37:19;;;;;;;2.00;1.10;;;;;;;14.25;74.81;97560.78;4972378;28;20113;-72
2023/10/29 01:39:46;;;;;;;4.22;1.10;;;;;;;14.26;74.76;97558.97;4972098;28;20090;-75
2023/10/29 01:42:12;;;;;;;2.95;1.13;;;;;;;14.26;74.74;97569.53;4972261;28;20054;-73
2023/10/29 01:44:39;;;;;;;2.53;1.30;;;;;;;14.27;74.86;97563.25;4972504;28;20050;-74
2023/10/29 01:47:05;;;;;;;2.33;1.10;;;;;;;14.28;74.84;97557.78;4972339;28;20058;-74
2023/10/29 01:49:33;;;;;;;3.08;1.10;;;;;;;14.30;74.86;97560.28;4972157;28;20110;-75
2023/10/29 01:52:00;;;;;;;2.42;1.35;;;;;;;14.32;74.94;97550.38;4971032;28;20055;-72
2023/10/29 01:54:27;;;;;;;5.93;1.23;;;;;;;14.32;74.75;97553.81;4972151;28;20097;-75
2023/10/29 01:56:53;;;;;;;3.42;1.15;;;;;;;14.34;74.94;97553.66;4972427;28;20141;-76
2023/10/29 01:59:20;;;;;;;2.88;1.20;;;;;;;14.36;75.04;97540.28;4972173;28;20054;-76
2023/10/29 02:01:46;;;;;;;1.25;0.95;;;;;;;14.38;74.94;97546.22;4972288;28;20093;-77
2023/10/29 02:04:13;;;;;;;1.60;0.82;;;;;;;14.38;74.96;97528.53;4970996;28;20137;-75
2023/10/29 02:06:39;;;;;;;2.17;1.15;;;;;;;14.40;74.91;97528.34;4971995;28;20046;-74
2023/10/29 02:09:10;;;;;;;3.78;1.40;;;;;;;14.40;74.89;97512.47;4971701;28;20082;-75
2023/10/29 02:11:38;;;;;;;4.05;1.20;;;;;;;14.42;74.77;97506.03;4972256;28;20156;-75
2023/10/29 02:14:06;;;;;;;3.65;1.08;;;;;;;14.42;74.74;97506.03;4972020;28;20492;-76
2023/10/29 02:16:32;;;;;;;2.70;1.33;;;;;;;14.44;74.87;97496.06;4973804;28;20097;-76
2023/10/29 02:18:59;;;;;;;4.93;1.15;;;;;;;14.44;74.81;97504.00;4975893;28;20043;-78
2023/10/29 02:21:26;;;;;;;1.13;0.90;;;;;;;14.45;74.79;97495.09;4975863;28;20046;-76
2023/10/29 02:23:53;;;;;;;1.45;0.95;;;;;;;14.46;74.84;97486.16;4974524;28;20058;-76
2023/10/29 02:26:20;;;;;;;2.25;0.90;;;;;;;14.48;75.12;97479.88;4975980;28;20043;-72
2023/10/29 02:28:46;;;;;;;5.13;1.45;;;;;;;14.49;74.93;97473.56;4975741;28;20046;-74
2023/10/29 02:31:17;;;;;;;3.83;1.35;;;;;;;14.49;74.87;97470.94;4975742;28;20179;-75
2023/10/29 02:33:44;;;;;;;2.63;1.10;;;;;;;14.52;74.99;97474.06;4975487;28;20047;-74
2023/10/29 02:36:10;;;;;;;2.28;1.00;;;;;;;14.53;74.85;97470.44;4975580;28;20039;-75
2023/10/29 02:38:37;;;;;;;1.73;1.20;;;;;;;14.54;74.89;97450.91;4975567;28;20046;-73
2023/10/29 02:41:05;;;;;;;2.40;1.10;;;;;;;14.57;74.86;97455.84;4975708;28;20105;-76
2023/10/29 02:43:31;;;;;;;2.63;1.00;;;;;;;14.58;74.87;97446.91;4975601;28;20101;-75
2023/10/29 02:45:58;;;;;;;4.32;1.52;;;;;;;14.60;74.76;97433.50;4975404;28;20475;-75
2023/10/29 02:48:25;;;;;;;1.30;0.70;;;;;;;14.62;74.65;97438.63;4975400;28;20074;-74
2023/10/29 02:50:53;;;;;;;2.78;1.10;;;;;;;14.62;74.50;97434.19;4975386;28;20054;-78
2023/10/29 02:53:20;;;;;;;3.83;1.50;;;;;;;14.64;74.50;97431.34;4975471;28;20045;-72
2023/10/29 02:55:47;;;;;;;2.67;1.38;;;;;;;14.64;74.45;97434.81;4975375;28;20047;-75
2023/10/29 02:58:14;;;;;;;3.47;0.98;;;;;;;14.66;74.46;97442.59;4975362;28;20042;-74
2023/10/29 03:00:40;;;;;;;1.00;0.90;;;;;;;14.66;74.64;97427.50;4975047;28;20051;-74
2023/10/29 03:03:07;;;;;;;2.90;0.80;;;;;;;14.66;74.44;97414.28;4975159;28;20050;-76
2023/10/29 03:05:34;;;;;;;2.15;0.80;;;;;;;14.69;74.47;97418.44;4974996;28;20053;-74
2023/10/29 03:08:19;;;;;;;3.20;0.95;;;;;;;14.70;74.36;97425.38;4974961;28;20137;-74
2023/10/29 03:10:49;;;;;;;2.83;1.20;;;;;;;14.71;74.43;97406.66;4973600;28;20101;-74
2023/10/29 03:13:16;;;;;;;3.13;1.00;;;;;;;14.73;74.44;97438.28;4974976;28;20043;-75
2023/10/29 03:15:43;;;;;;;2.08;0.90;;;;;;;14.73;74.37;97403.84;4973584;28;20101;-73
2023/10/29 03:18:11;;;;;;;1.80;0.85;;;;;;;14.77;74.35;97399.84;4974816;28;20053;-73
2023/10/29 03:20:38;;;;;;;2.28;1.25;;;;;;;14.78;74.41;97383.00;4974722;28;20411;-75
2023/10/29 03:23:05;;;;;;;4.38;1.10;;;;;;;14.81;74.43;97392.41;5005848;28;20043;-75
2023/10/29 03:25:31;;;;;;;4.60;1.27;;;;;;;14.83;74.30;97393.88;4973500;28;20051;-79
2023/10/29 03:27:58;;;;;;;2.13;0.90;;;;;;;14.85;74.29;97386.56;4974528;28;20046;-79
2023/10/29 03:30:24;;;;;;;3.50;0.98;;;;;;;14.88;74.07;97393.34;4974334;28;20054;-73
2023/10/29 03:32:51;;;;;;;4.95;1.25;;;;;;;14.90;74.14;97394.00;4974790;28;20097;-73
2023/10/29 03:35:18;;;;;;;5.45;1.05;;;;;;;14.92;74.19;97389.34;4974462;28;20054;-77
2023/10/29 03:37:45;;;;;;;3.88;1.02;;;;;;;14.94;74.12;97395.31;4974411;28;20162;-71
2023/10/29 03:40:12;;;;;;;4.10;1.00;;;;;;;14.96;74.16;97401.25;4974372;28;20442;-81
2023/10/29 03:42:38;;;;;;;4.85;1.00;;;;;;;14.98;74.09;97401.91;4974441;28;20049;-72
2023/10/29 03:45:05;;;;;;;3.20;1.33;;;;;;;15.02;74.15;97410.34;4974344;28;20051;-79
2023/10/29 03:47:32;;;;;;;2.03;0.65;;;;;;;15.07;74.09;97407.19;4974469;28;20055;-74
2023/10/29 03:49:59;;;;;;;2.28;1.10;;;;;;;15.11;73.97;97421.72;4974357;28;20051;-73
2023/10/29 03:52:25;;;;;;;4.82;1.08;;;;;;;15.15;73.73;97412.44;4974165;28;20132;-74
2023/10/29 03:54:52;;;;;;;2.22;0.82;;;;;;;15.18;73.54;97408.59;4973017;28;20105;-74
2023/10/29 03:57:18;;;;;;;2.50;0.80;;;;;;;15.19;73.52;97408.44;4973993;28;20447;-70
2023/10/29 03:59:45;;;;;;;1.52;0.70;;;;;;;15.22;73.47;97416.00;4974108;28;20134;-75
2023/10/29 04:02:11;;;;;;;2.05;1.00;;;;;;;15.25;73.17;97404.22;4974166;28;20043;-74
2023/10/29 04:04:38;;;;;;;2.65;1.13;;;;;;;15.26;73.38;97408.56;4974130;28;20114;-75
2023/10/29 04:07:06;;;;;;;1.75;0.90;;;;;;;15.27;73.16;97406.69;4973972;28;20050;-72
2023/10/29 04:09:33;;;;;;;2.17;1.02;;;;;;;15.30;73.09;97422.25;4973703;28;20051;-78
2023/10/29 04:12:00;;;;;;;1.80;0.90;;;;;;;15.31;73.14;97415.97;4973820;28;20062;-71
2023/10/29 04:14:27;;;;;;;2.17;1.40;;;;;;;15.32;72.82;97423.72;4974041;28;20069;-72
2023/10/29 04:16:54;;;;;;;1.48;0.98;;;;;;;15.34;72.91;97416.44;4973877;28;20093;-79
2023/10/29 04:19:20;;;;;;;3.10;1.02;;;;;;;15.35;72.81;97406.66;4972446;28;20117;-71
2023/10/29 04:21:47;;;;;;;4.65;0.90;;;;;;;15.37;72.69;97417.91;4974067;28;20055;-75
2023/10/29 04:24:13;;;;;;;2.47;1.00;;;;;;;15.36;72.50;97406.47;4973747;28;20400;-74
2023/10/29 04:26:40;;;;;;;2.90;0.85;;;;;;;15.37;72.36;97410.78;4973789;28;20051;-78
2023/10/29 04:29:06;;;;;;;1.27;0.90;;;;;;;15.40;72.63;97420.19;4973618;28;20051;-73
2023/10/29 04:31:33;;;;;;;3.08;0.80;;;;;;;15.41;72.29;97408.63;4973403;28;20074;-73
2023/10/29 04:33:59;;;;;;;2.95;0.90;;;;;;;15.45;72.46;97404.59;4972159;28;20046;-75
2023/10/29 04:36:26;;;;;;;2.40;0.82;;;;;;;15.46;72.42;97418.66;4973382;28;20043;-72
2023/10/29 04:38:53;;;;;;;1.33;0.80;;;;;;;15.49;72.37;97426.28;4972453;28;20097;-76
2023/10/29 04:41:19;;;;;;;3.72;1.50;;;;;;;15.50;72.33;97426.09;4973588;28;20055;-74
2023/10/29 04:43:46;;;;;;;1.13;0.57;;;;;;;15.52;72.21;97420.63;4973405;28;20082;-77
2023/10/29 04:46:13;;;;;;;3.03;1.10;;;;;;;15.54;72.27;97415.13;4973124;28;20081;-77
2023/10/29 04:48:40;;;;;;;1.20;0.85;;;;;;;15.55;72.11;97419.44;4972977;28;20438;-74
2023/10/29 04:51:07;;;;;;;2.30;1.02;;;;;;;15.54;71.79;97423.06;4973059;28;20051;-76
2023/10/29 04:53:34;;;;;;;2.58;1.05;;;;;;;15.57;71.99;97417.44;4971800;28;20483;-78
2023/10/29 04:56:02;;;;;;;3.08;1.23;;;;;;;15.57;71.96;97423.56;4971760;28;20043;-78
2023/10/29 04:58:31;;;;;;;2.60;0.95;;;;;;;15.58;71.93;97419.91;4973193;28;20491;-74
2023/10/29 05:00:58;;;;;;;1.77;0.80;;;;;;;15.58;72.00;97417.25;4973028;28;20054;-76
2023/10/29 05:03:27;;;;;;;1.48;0.85;;;;;;;15.59;72.11;97424.19;4973079;28;20058;-76
2023/10/29 05:05:55;;;;;;;1.95;0.90;;;;;;;15.59;71.70;97418.09;4971555;28;20050;-77
2023/10/29 05:08:21;;;;;;;2.20;0.70;;;;;;;15.60;71.67;97406.47;4972795;28;20043;-76
2023/10/29 05:10:48;;;;;;;2.20;0.93;;;;;;;15.61;71.58;97424.03;4972700;28;20091;-72
2023/10/29 05:13:15;;;;;;;3.20;0.90;;;;;;;15.60;71.40;97428.53;4972791;28;20138;-77
2023/10/29 05:15:42;;;;;;;1.77;1.10;;;;;;;15.59;71.49;97429.50;4972625;28;20042;-76
2023/10/29 05:18:08;;;;;;;2.03;0.90;;;;;;;15.61;71.59;97424.03;4972558;28;20351;-78
2023/10/29 05:20:37;;;;;;;2.97;0.80;;;;;;;15.59;71.36;97415.44;4972253;28;20142;-74
2023/10/29 05:23:04;;;;;;;3.50;0.80;;;;;;;15.59;71.40;97410.13;4972424;28;20046;-76
2023/10/29 05:25:31;;;;;;;4.10;0.73;;;;;;;15.59;71.50;97410.94;4972560;28;20058;-75
2023/10/29 05:27:58;;;;;;;6.18;0.93;;;;;;;15.59;71.62;97410.94;4972468;28;20474;-75
2023/10/29 05:30:24;;;;;;;3.53;1.20;;;;;;;15.60;71.43;97409.13;4972187;28;20043;-76
2023/10/29 05:32:51;;;;;;;1.63;0.70;;;;;;;15.60;71.55;97422.38;4972348;28;20058;-77
2023/10/29 05:35:18;;;;;;;2.00;0.82;;;;;;;15.60;71.35;97398.53;4972073;28;20058;-78
2023/10/29 05:37:44;;;;;;;2.85;0.80;;;;;;;15.60;71.52;97425.88;4972128;28;20471;-74
2023/10/29 05:40:11;;;;;;;1.52;0.70;;;;;;;15.62;71.57;97415.06;4971984;28;20137;-75
2023/10/29 05:42:38;;;;;;;1.70;0.82;;;;;;;15.63;71.63;97420.19;4972239;28;20042;-74
2023/10/29 05:45:06;;;;;;;2.78;1.17;;;;;;;15.63;71.36;97412.22;4972039;28;20603;-77
2023/10/29 05:47:33;;;;;;;2.38;1.23;;;;;;;15.65;71.41;97414.72;4970738;28;20042;-78
2023/10/29 05:50:01;;;;;;;1.42;0.80;;;;;;;15.65;71.21;97404.09;4970553;28;20086;-75
2023/10/29 05:52:27;;;;;;;2.53;0.90;;;;;;;15.67;71.39;97412.72;4972239;28;20441;-75
2023/10/29 05:54:54;;;;;;;3.30;0.95;;;;;;;15.66;70.97;97416.34;4972009;28;20065;-79
2023/10/29 05:57:20;;;;;;;1.88;0.73;;;;;;;15.67;70.98;97436.59;4972060;28;20089;-75
2023/10/29 05:59:47;;;;;;;2.10;0.70;;;;;;;15.66;70.95;97421.66;4971649;28;20078;-77
2023/10/29 06:02:14;;;;;;;0.80;0.60;;;;;;;15.65;70.87;97425.31;4971675;28;20372;-79
2023/10/29 06:04:40;;;;;;;5.32;1.27;;;;;;;15.65;70.68;97430.63;4972075;28;20053;-71
2023/10/29 06:07:08;;;;;;;1.52;0.80;;;;;;;15.64;70.86;97439.59;4971832;28;20047;-75
2023/10/29 06:09:34;;;;;;;1.17;0.80;;;;;;;15.62;71.00;97442.41;4971858;28;20055;-77
2023/10/29 06:12:01;;;;;;;0.63;0.60;;;;;;;15.63;70.99;97433.44;4971907;28;20530;-75
2023/10/29 06:14:28;;;;;;;1.83;0.75;;;;;;;15.63;70.89;97432.66;4972037;28;20090;-77
2023/10/29 06:16:57;;;;;;;1.27;0.60;;;;;;;15.63;70.83;97437.94;4971860;28;20113;-75
2023/10/29 06:19:34;;;;;;;2.17;0.85;;;;;;;15.63;70.90;97433.44;4971958;28;20393;-72
2023/10/29 06:22:00;;;;;;;2.88;0.80;;;;;;;15.64;70.98;97413.06;4971903;28;20464;-75
2023/10/29 06:24:27;;;;;;;0.95;0.77;;;;;;;15.65;70.91;97443.88;4971899;28;20558;-77
2023/10/29 06:26:54;;;;;;;1.65;1.05;;;;;;;15.64;70.92;97442.25;4972269;28;20078;-77
2023/10/29 06:29:20;;;;;;;1.38;0.60;;;;;;;15.67;70.85;97443.72;4971607;28;20047;-75
2023/10/29 06:31:47;;;;;;;1.30;0.63;;;;;;;15.67;70.70;97439.25;4971638;28;20047;-75
2023/10/29 06:34:14;;;;;;;1.60;0.75;;;;;;;15.67;70.63;97444.56;4971892;28;20042;-79
2023/10/29 06:36:40;;;;;;;1.70;0.77;;;;;;;15.67;70.50;97454.31;4971959;28;20047;-74
2023/10/29 06:39:07;;;;;;;2.95;1.20;;;;;;;15.66;70.52;97447.38;4971723;28;20760;-74
2023/10/29 06:41:33;;;;;;;2.35;0.90;;;;;;;15.65;70.51;97467.75;4970400;28;20049;-75
2023/10/29 06:44:00;;;;;;;3.67;0.85;;;;;;;15.62;70.65;97482.19;4971626;28;20086;-75
2023/10/29 06:46:27;;;;;;;0.82;0.65;;;;;;;15.63;70.62;97465.28;4971672;28;20055;-77
2023/10/29 06:48:54;;;;;;;1.95;0.80;;;;;;;15.65;70.75;97467.75;4970421;28;20060;-76
2023/10/29 06:51:20;;;;;;;5.22;0.52;;;;;;;15.66;70.82;97468.59;4971467;28;20051;-72
2023/10/29 06:53:47;;;;;;;3.58;1.00;;;;;;;15.69;70.86;97468.22;4971819;28;20058;-74
2023/10/29 06:56:14;;;;;;;2.15;0.70;;;;;;;15.71;70.86;97472.38;4971590;28;20179;-76
2023/10/29 06:58:41;;;;;;;0.68;0.68;;;;;;;15.72;70.79;97481.97;4970149;28;20496;-74
2023/10/29 07:01:08;;;;;;;1.23;0.60;;;;;;;15.74;70.48;97493.22;4972210;28;20050;-73
2023/10/29 07:03:36;;;;;;;1.42;0.80;;;;;;;15.76;70.39;97479.78;4975287;28;20051;-79
2023/10/29 07:06:10;;;;;;;3.58;0.90;;;;;;;15.74;69.86;97484.44;4975138;28;20058;-73
2023/10/29 07:08:37;;;;;;;2.25;0.80;;;;;;;15.76;70.25;97479.78;4974920;28;20054;-72
2023/10/29 07:11:04;;;;;;;2.20;0.70;;;;;;;15.76;70.21;97470.00;4974919;28;20054;-76
2023/10/29 07:13:32;;;;;;;2.55;0.98;;;;;;;15.77;70.04;97473.47;4975167;28;20050;-79
2023/10/29 07:15:59;;;;;;;2.38;0.85;;;;;;;15.77;70.05;97474.28;4973813;28;20097;-73
2023/10/29 07:18:26;;;;;;;1.45;0.75;;;;;;;15.79;70.05;97481.25;4974928;28;20058;-78
2023/10/29 07:20:54;;;;;;;3.28;0.90;;;;;;;15.79;70.27;97497.16;4974722;28;20055;-73
2023/10/29 07:23:22;;;;;;;3.33;1.17;;;;;;;15.81;69.86;97492.53;4974829;28;20053;-74
2023/10/29 07:25:49;;;;;;;2.22;0.80;;;;;;;15.83;69.99;97486.03;4973414;28;20050;-74
2023/10/29 07:28:17;;;;;;;2.33;1.02;;;;;;;15.85;69.86;97499.94;4974665;28;20712;-72
2023/10/29 07:30:44;;;;;;;2.33;0.70;;;;;;;15.88;69.89;97499.59;4973273;28;20125;-75
2023/10/29 07:33:11;;;;;;;4.43;0.90;;;;;;;15.91;69.75;97501.06;4974519;28;20055;-72
2023/10/29 07:35:39;;;;;;;2.38;0.80;;;;;;;15.95;69.62;97499.72;4973306;28;20125;-78
2023/10/29 07:38:07;;;;;;;2.00;0.70;;;;;;;15.98;69.72;97511.81;4974475;28;20081;-79
2023/10/29 07:40:35;;;;;;;1.98;0.95;;;;;;;16.00;69.46;97500.00;4974521;28;20046;-75
2023/10/29 07:43:05;;;;;;;3.30;0.80;;;;;;;16.04;69.29;97502.31;4974435;28;20070;-75
2023/10/29 07:45:32;;;;;;;2.40;0.73;;;;;;;16.05;69.00;97506.59;4974377;28;20568;-76
2023/10/29 07:47:58;;;;;;;2.25;0.98;;;;;;;16.07;69.28;97517.88;4974422;28;20400;-77
2023/10/29 07:50:26;;;;;;;1.80;0.77;;;;;;;16.07;68.87;97504.63;4974132;28;20489;-77
2023/10/29 07:52:52;;;;;;;2.22;0.82;;;;;;;16.07;68.82;97512.56;4974170;28;20047;-76
2023/10/29 07:55:19;;;;;;;1.55;0.70;;;;;;;16.06;68.75;97514.41;4974421;28;20051;-74
2023/10/29 07:57:46;;;;;;;4.95;1.00;;;;;;;16.09;68.83;97521.16;4974245;28;20140;-76
2023/10/29 08:00:13;;;;;;;3.78;0.93;;;;;;;16.11;69.05;97519.19;4973828;28;20499;-74
2023/10/29 08:02:41;;;;;;;2.65;0.80;;;;;;;16.14;69.14;97534.72;4974145;28;20055;-75
2023/10/29 08:05:10;;;;;;;7.03;1.20;;;;;;;16.18;68.92;97543.19;4973933;28;20440;-75
2023/10/29 08:07:38;;;;;;;2.88;0.80;;;;;;;16.22;69.27;97534.66;4973910;28;20554;-75
2023/10/29 08:10:04;;;;;;;2.30;0.88;;;;;;;16.27;68.89;97542.09;4973964;28;20042;-76
2023/10/29 08:12:31;;;;;;;6.53;1.00;;;;;;;16.32;68.93;97547.69;4973266;28;20051;-74
2023/10/29 08:14:58;;;;;;;6.90;1.02;;;;;;;16.36;68.50;97532.22;4973591;28;20101;-76
2023/10/29 08:17:25;;;;;;;4.18;0.73;;;;;;;16.39;68.26;97537.19;4973839;28;20093;-78
2023/10/29 08:19:52;;;;;;;3.95;1.23;;;;;;;16.42;67.68;97536.81;4973483;28;20057;-76
2023/10/29 08:22:19;;;;;;;3.08;1.05;;;;;;;16.44;67.94;97548.06;4973689;28;20424;-77
2023/10/29 08:24:45;;;;;;;4.75;1.38;;;;;;;16.46;67.79;97559.34;4973803;28;20535;-78
2023/10/29 08:27:12;;;;;;;2.78;1.10;;;;;;;16.46;67.63;97575.28;4973749;28;20054;-79
2023/10/29 08:29:40;;;;;;;5.38;0.88;;;;;;;16.48;67.68;97577.78;4973510;28;20042;-76
2023/10/29 08:32:06;;;;;;;8.32;1.10;;;;;;;16.50;67.73;97586.38;4973418;28;20043;-73
2023/10/29 08:34:33;;;;;;;4.18;1.10;;;;;;;16.51;67.61;97596.81;4973597;28;20051;-76
2023/10/29 08:37:00;;;;;;;3.67;1.25;;;;;;;16.54;67.20;97585.00;4973628;28;20046;-74
2023/10/29 08:39:27;;;;;;;4.22;1.00;;;;;;;16.57;67.38;97583.81;4973208;28;20043;-74
2023/10/29 08:41:54;;;;;;;5.25;1.30;;;;;;;16.59;67.10;97619.00;4973500;28;20054;-80
2023/10/29 08:44:20;;;;;;;5.93;1.40;;;;;;;16.62;67.14;97626.59;4973464;28;20059;-74
2023/10/29 08:46:47;;;;;;;3.65;1.40;;;;;;;16.63;66.72;97622.97;4973180;28;20133;-75
2023/10/29 08:49:13;;;;;;;5.50;0.98;;;;;;;16.65;66.84;97636.88;4971756;28;20047;-73
2023/10/29 08:51:40;;;;;;;5.10;1.35;;;;;;;16.66;66.63;97641.16;4972072;28;20102;-75
2023/10/29 08:54:08;;;;;;;7.22;1.50;;;;;;;16.70;66.63;97615.09;4973293;28;20050;-74
2023/10/29 08:56:35;;;;;;;8.35;1.50;;;;;;;16.72;66.45;97615.72;5003935;28;20062;-78
2023/10/29 08:59:04;;;;;;;4.55;1.02;;;;;;;16.74;66.47;97625.16;4972762;28;20495;-76
2023/10/29 09:01:31;;;;;;;7.68;1.20;;;;;;;16.78;66.24;97631.75;4972915;28;20047;-72
2023/10/29 09:03:59;;;;;;;2.97;1.30;;;;;;;16.80;66.42;97626.28;4973142;28;20146;-78
2023/10/29 09:06:27;;;;;;;4.80;1.23;;;;;;;16.83;66.35;97609.97;4973023;28;20082;-76
2023/10/29 09:08:53;;;;;;;4.72;1.48;;;;;;;16.86;65.95;97622.88;4972702;28;20144;-75
2023/10/29 09:11:20;;;;;;;4.47;1.20;;;;;;;16.89;66.03;97627.00;4972993;28;20042;-80
2023/10/29 09:13:47;;;;;;;5.25;1.23;;;;;;;16.91;65.69;97635.63;4972731;28;20047;-72
2023/10/29 09:16:14;;;;;;;4.40;1.30;;;;;;;16.96;65.61;97635.09;4972600;28;20069;-73
2023/10/29 09:18:41;;;;;;;5.43;1.30;;;;;;;17.00;65.09;97639.03;4972521;28;20046;-76
2023/10/29 09:21:08;;;;;;;5.82;1.60;;;;;;;17.05;65.43;97645.47;4971438;28;20106;-74
2023/10/29 09:23:35;;;;;;;5.93;1.40;;;;;;;17.11;65.59;97641.28;4972558;28;20042;-74
2023/10/29 09:26:01;;;;;;;8.13;1.65;;;;;;;17.16;65.42;97636.22;4972404;28;20133;-77
2023/10/29 09:28:28;;;;;;;5.20;1.17;;;;;;;17.21;65.08;97648.16;4972488;28;20067;-81
2023/10/29 09:30:54;;;;;;;7.20;1.35;;;;;;;17.22;64.30;97644.47;4972517;28;20475;-74
2023/10/29 09:33:21;;;;;;;3.40;1.17;;;;;;;17.24;64.08;97643.31;4972478;28;20652;-73
2023/10/29 09:35:48;;;;;;;4.15;1.17;;;;;;;17.25;63.86;97663.56;4971144;28;20062;-77
2023/10/29 09:38:15;;;;;;;6.07;1.80;;;;;;;17.24;63.80;97675.22;4972526;28;20054;-72
2023/10/29 09:40:42;;;;;;;2.60;1.42;;;;;;;17.22;63.43;97687.84;4972177;28;20046;-80
2023/10/29 09:43:12;;;;;;;9.50;1.95;;;;;;;17.20;63.41;97695.19;4972149;28;20133;-80
2023/10/29 09:45:45;;;;;;;7.43;1.50;;;;;;;17.19;63.38;97696.19;4972299;28;20047;-73
2023/10/29 09:48:14;;;;;;;9.50;1.40;;;;;;;17.16;63.46;97696.56;4972473;28;20526;-79
2023/10/29 09:50:43;;;;;;;4.13;1.10;;;;;;;17.15;63.53;97708.19;4972106;28;20059;-76
2023/10/29 09:53:15;;;;;;;4.70;1.13;;;;;;;17.13;62.45;97719.03;4972199;28;20069;-76
2023/10/29 09:55:41;;;;;;;5.13;1.63;;;;;;;17.16;63.29;97708.00;4972213;28;20061;-74
2023/10/29 09:58:09;;;;;;;6.10;1.35;;;;;;;17.18;63.29;97718.47;4970874;28;20590;-79
2023/10/29 10:00:36;;;;;;;5.10;1.35;;;;;;;17.18;63.26;97708.66;4972110;28;20051;-79
2023/10/29 10:03:03;;;;;;;5.75;1.55;;;;;;;17.18;62.99;97711.34;4970955;28;20536;-75
2023/10/29 10:05:30;;;;;;;6.20;1.80;;;;;;;17.18;63.06;97711.34;4971999;28;20042;-77
2023/10/29 10:07:57;;;;;;;3.17;1.50;;;;;;;17.18;63.32;97718.47;4972071;28;20135;-72
2023/10/29 10:10:41;;;;;;;6.40;1.52;;;;;;;17.14;62.42;97730.47;4971723;28;20046;-73
2023/10/29 10:13:08;;;;;;;4.18;1.13;;;;;;;17.17;63.53;97724.81;4970843;28;20051;-74
2023/10/29 10:15:37;;;;;;;4.05;1.33;;;;;;;17.18;63.30;97737.09;4971987;28;20087;-76
2023/10/29 10:18:05;;;;;;;3.55;1.42;;;;;;;17.17;63.12;97733.63;4972020;28;20385;-75
2023/10/29 10:20:33;;;;;;;6.38;1.70;;;;;;;17.16;62.74;97739.09;4971725;28;20101;-74
2023/10/29 10:23:05;;;;;;;4.07;1.40;;;;;;;17.14;61.96;97736.63;4972138;28;20063;-74
2023/10/29 10:25:33;;;;;;;9.57;1.60;;;;;;;17.15;62.70;97732.13;4971974;28;20051;-77
2023/10/29 10:28:02;;;;;;;7.80;1.75;;;;;;;17.15;63.10;97722.31;4970697;28;20051;-77
2023/10/29 10:30:37;;;;;;;15.73;1.90;;;;;;;17.13;59.79;97734.13;4971707;28;20506;-76
2023/10/29 10:33:08;;;;;;;5.65;1.17;;;;;;;17.15;60.86;97721.47;4971640;28;20054;-75
2023/10/29 10:35:46;;;;;;;5.07;1.98;;;;;;;17.15;61.38;97737.44;4971910;28;20051;-78
2023/10/29 10:38:15;;;;;;;5.60;1.65;;;;;;;17.18;62.29;97726.44;4975595;28;20054;-72
2023/10/29 10:40:42;;;;;;;5.70;1.35;;;;;;;17.18;62.38;97732.59;4975514;28;20051;-71
2023/10/29 10:43:08;;;;;;;4.30;1.38;;;;;;;17.22;62.90;97733.06;4974210;28;20499;-76
2023/10/29 10:45:40;;;;;;;4.45;1.20;;;;;;;17.30;62.55;97729.47;4975379;28;20051;-76
2023/10/29 10:48:08;;;;;;;9.70;1.67;;;;;;;17.50;65.14;97732.47;4975672;28;20058;-75
2023/10/29 10:50:35;;;;;;;4.97;1.45;;;;;;;17.77;65.89;97729.34;4975216;28;20047;-74
2023/10/29 10:53:03;;;;;;;6.50;1.52;;;;;;;18.08;65.55;97728.31;4975417;28;20053;-76
2023/10/29 10:55:30;;;;;;;7.68;1.45;;;;;;;18.41;64.29;97733.22;4975355;28;20105;-78
2023/10/29 10:58:18;;;;;;;3.03;1.02;;;;;;;18.73;61.58;97727.59;4975448;28;20050;-72
2023/10/29 11:00:45;;;;;;;4.45;1.27;;;;;;;18.92;59.99;97727.94;4974017;28;20114;-76
2023/10/29 11:03:11;;;;;;;3.97;1.13;;;;;;;18.96;59.14;97721.22;4975317;28;20495;-75
2023/10/29 11:05:57;;;;;;;5.65;1.30;;;;;;;18.92;58.49;97718.13;4974104;28;20117;-76
2023/10/29 11:08:24;;;;;;;3.55;1.20;;;;;;;18.84;58.01;97719.06;4975065;28;20446;-77
2023/10/29 11:10:53;;;;;;;5.95;1.30;;;;;;;18.74;58.05;97732.72;4973538;28;20082;-76
2023/10/29 11:13:20;;;;;;;5.50;1.20;;;;;;;18.66;58.29;97738.19;4975080;28;20047;-76
2023/10/29 11:15:48;;;;;;;7.22;1.40;;;;;;;18.62;58.82;97716.41;4974847;28;20505;-75
2023/10/29 11:18:28;;;;;;;4.25;1.63;;;;;;;18.61;56.65;97735.25;4975042;28;20054;-73
2023/10/29 11:20:55;;;;;;;6.65;1.60;;;;;;;18.74;60.03;97702.56;4974847;28;20074;-74
2023/10/29 11:23:27;;;;;;;2.90;1.02;;;;;;;18.85;58.26;97711.91;4974812;28;20114;-75
2023/10/29 11:26:20;;;;;;;4.78;1.50;;;;;;;18.95;56.48;97719.56;4974820;28;20046;-76
2023/10/29 11:28:48;;;;;;;4.00;0.93;;;;;;;19.07;58.13;97723.41;4974676;28;20055;-73
2023/10/29 11:31:17;;;;;;;6.30;1.30;;;;;;;19.08;57.70;97714.38;4974667;28;20137;-74
2023/10/29 11:33:45;;;;;;;3.72;1.25;;;;;;;19.09;57.69;97721.34;4973041;28;20134;-77
2023/10/29 11:36:31;;;;;;;4.25;1.38;;;;;;;19.06;57.25;97724.41;4974710;28;20109;-76